Time;durP1;ratioP1;P1;durP2;ratioP2;P2;SDS_P1;SDS_P2;PMS_P1;PMS_P2;Temp;Humidity;BMP_temperature;BMP_pressure;BME280_temperature;BME280_humidity;BME280_pressure;Samples;Min_cycle;Max_cycle;Signal;HPM_P1;HPM_P2
2023/08/23 00:01:51;;;;;;;10.73;3.10;;;19.20;99.90;;;;;;5071997;28;20460;-72
2023/08/23 00:04:37;;;;;;;8.20;3.38;;;19.10;99.90;;;;;;5085146;28;20054;-71
2023/08/23 00:07:23;;;;;;;9.15;2.88;;;19.00;99.90;;;;;;5099162;28;20046;-71
2023/08/23 00:10:10;;;;;;;8.07;2.90;;;18.90;99.90;;;;;;5097211;28;20040;-71
2023/08/23 00:12:56;;;;;;;9.95;3.25;;;18.90;99.90;;;;;;5085240;28;20035;-72
2023/08/23 00:15:42;;;;;;;7.72;3.28;;;18.80;99.90;;;;;;5084162;28;20027;-72
2023/08/23 00:18:28;;;;;;;8.82;3.45;;;18.80;99.90;;;;;;5083130;28;20388;-74
2023/08/23 00:21:14;;;;;;;8.05;3.17;;;18.80;99.90;;;;;;5091532;28;20043;-74
2023/08/23 00:24:00;;;;;;;7.38;2.97;;;18.80;99.90;;;;;;5089854;28;20044;-74
2023/08/23 00:26:46;;;;;;;8.77;3.10;;;18.80;99.90;;;;;;5074786;28;20074;-74
2023/08/23 00:29:32;;;;;;;10.27;3.78;;;18.70;99.90;;;;;;5111252;28;20047;-74
2023/08/23 00:32:18;;;;;;;11.23;3.10;;;18.70;99.90;;;;;;5077598;28;20067;-74
2023/08/23 00:35:04;;;;;;;6.93;3.45;;;18.70;99.90;;;;;;5085012;28;20039;-74
2023/08/23 00:37:50;;;;;;;8.13;3.10;;;18.80;99.90;;;;;;5070824;28;20368;-74
2023/08/23 00:40:36;;;;;;;7.50;2.88;;;18.70;99.90;;;;;;5070122;28;20035;-74
2023/08/23 00:43:22;;;;;;;5.03;3.05;;;18.70;99.90;;;;;;5083138;28;20051;-74
2023/08/23 00:46:08;;;;;;;7.50;3.17;;;18.70;99.90;;;;;;5098005;28;20051;-74
2023/08/23 00:48:54;;;;;;;5.47;2.60;;;18.70;99.90;;;;;;5068891;28;20035;-74
2023/08/23 00:51:40;;;;;;;9.07;2.72;;;18.70;99.90;;;;;;5084402;28;20039;-73
2023/08/23 00:54:26;;;;;;;8.95;2.88;;;18.60;99.90;;;;;;5064272;28;20051;-74
2023/08/23 00:57:12;;;;;;;7.45;2.70;;;18.60;99.90;;;;;;5067552;28;20464;-74
2023/08/23 00:59:58;;;;;;;7.72;3.28;;;18.60;99.90;;;;;;5084247;28;20047;-74
2023/08/23 01:02:44;;;;;;;6.97;2.97;;;18.60;99.90;;;;;;5083985;28;20035;-75
2023/08/23 01:06:00;;;;;;;9.52;3.47;;;18.60;99.90;;;;;;5082974;28;20114;-73
2023/08/23 01:09:27;;;;;;;7.60;3.20;;;18.60;99.90;;;;;;5067197;28;20040;-74
2023/08/23 01:12:36;;;;;;;9.68;3.70;;;18.60;99.90;;;;;;5071597;28;20421;-76
2023/08/23 01:15:21;;;;;;;7.55;2.97;;;18.60;99.90;;;;;;5095476;28;20119;-73
2023/08/23 01:18:07;;;;;;;11.55;3.30;;;18.60;99.90;;;;;;5083236;28;20501;-73
2023/08/23 01:20:54;;;;;;;10.00;3.17;;;18.60;99.90;;;;;;5066271;28;20093;-74
2023/08/23 01:23:41;;;;;;;12.75;3.25;;;18.50;99.90;;;;;;5098030;28;20479;-74
2023/08/23 01:26:27;;;;;;;5.38;2.88;;;18.50;99.90;;;;;;5076966;28;20054;-74
2023/08/23 01:29:13;;;;;;;8.27;3.45;;;18.50;99.90;;;;;;5084392;28;20464;-74
2023/08/23 01:32:08;;;;;;;6.95;3.08;;;18.40;99.90;;;;;;5077160;28;20069;-74
2023/08/23 01:35:07;;;;;;;9.30;3.13;;;18.40;99.90;;;;;;5096193;28;20032;-73
2023/08/23 01:37:53;;;;;;;7.65;2.97;;;18.40;99.90;;;;;;5084220;28;20721;-75
2023/08/23 01:40:39;;;;;;;11.43;3.00;;;18.40;99.90;;;;;;5084897;28;20032;-74
2023/08/23 01:43:25;;;;;;;10.95;3.53;;;18.40;99.90;;;;;;5084239;28;20050;-74
2023/08/23 01:46:11;;;;;;;10.65;3.33;;;18.40;99.90;;;;;;5074501;28;20364;-73
2023/08/23 01:48:57;;;;;;;6.75;3.17;;;18.40;99.90;;;;;;5087670;28;20043;-74
2023/08/23 01:51:43;;;;;;;7.70;3.03;;;18.30;99.90;;;;;;5081678;28;20054;-74
2023/08/23 01:54:30;;;;;;;11.10;3.08;;;18.30;99.90;;;;;;5098633;28;20054;-73
2023/08/23 01:57:16;;;;;;;9.70;3.17;;;18.30;99.90;;;;;;5086783;28;20154;-74
2023/08/23 02:00:03;;;;;;;7.57;3.10;;;18.30;99.90;;;;;;5081312;28;20118;-74
2023/08/23 02:02:49;;;;;;;7.22;3.40;;;18.30;99.90;;;;;;5110565;28;20119;-74
2023/08/23 02:05:35;;;;;;;9.02;3.67;;;18.20;99.90;;;;;;5097301;28;20032;-74
2023/08/23 02:08:21;;;;;;;6.72;3.70;;;18.20;99.90;;;;;;5067447;28;20040;-73
2023/08/23 02:11:07;;;;;;;6.47;3.50;;;18.20;99.90;;;;;;5082664;28;20348;-74
2023/08/23 02:13:53;;;;;;;10.90;3.20;;;18.20;99.90;;;;;;5084282;28;20100;-73
2023/08/23 02:16:39;;;;;;;8.25;3.95;;;18.20;99.90;;;;;;5081901;28;20032;-73
2023/08/23 02:19:25;;;;;;;9.90;3.25;;;18.20;99.90;;;;;;5096432;28;20161;-74
2023/08/23 02:22:11;;;;;;;9.98;3.10;;;18.10;99.90;;;;;;5097218;28;20047;-73
2023/08/23 02:24:57;;;;;;;6.60;3.70;;;18.10;99.90;;;;;;5104242;28;20506;-74
2023/08/23 02:27:43;;;;;;;10.52;3.53;;;18.10;99.90;;;;;;5077023;28;20050;-74
2023/08/23 02:30:30;;;;;;;9.35;3.20;;;18.10;99.90;;;;;;5052392;28;20477;-74
2023/08/23 02:33:18;;;;;;;7.20;3.25;;;18.10;99.90;;;;;;5076659;28;20032;-74
2023/08/23 02:36:04;;;;;;;6.28;3.15;;;18.10;99.90;;;;;;5083044;28;20110;-73
2023/08/23 02:38:50;;;;;;;10.80;3.53;;;18.10;99.90;;;;;;5097147;28;20039;-74
2023/08/23 02:41:36;;;;;;;6.55;3.22;;;18.10;99.90;;;;;;5082622;28;20081;-74
2023/08/23 02:44:22;;;;;;;7.63;3.58;;;18.00;99.90;;;;;;5110374;28;20043;-75
2023/08/23 02:47:07;;;;;;;7.70;3.38;;;18.10;99.90;;;;;;5082987;28;20499;-75
2023/08/23 02:49:53;;;;;;;7.00;3.33;;;18.00;99.90;;;;;;5096200;28;20183;-73
2023/08/23 02:52:39;;;;;;;7.28;3.50;;;18.00;99.90;;;;;;5062558;28;20114;-73
2023/08/23 02:55:25;;;;;;;6.03;3.97;;;18.00;99.90;;;;;;5075034;28;20123;-74
2023/08/23 02:58:11;;;;;;;5.75;3.45;;;18.00;99.90;;;;;;5058169;28;20039;-74
2023/08/23 03:00:57;;;;;;;10.30;3.53;;;18.00;99.90;;;;;;5082917;28;20042;-74
2023/08/23 03:03:43;;;;;;;8.35;3.67;;;18.00;99.90;;;;;;5066080;28;20364;-74
2023/08/23 03:06:29;;;;;;;8.05;3.63;;;18.10;99.90;;;;;;5076503;28;20085;-74
2023/08/23 03:09:15;;;;;;;14.85;4.80;;;18.10;99.90;;;;;;5079509;28;20601;-71
2023/08/23 03:12:01;;;;;;;10.60;3.60;;;18.10;99.90;;;;;;5067662;28;20058;-72
2023/08/23 03:14:47;;;;;;;8.68;3.58;;;18.10;99.90;;;;;;5081357;28;20035;-72
2023/08/23 03:17:33;;;;;;;7.32;3.75;;;18.10;99.90;;;;;;5068433;28;20081;-72
2023/08/23 03:20:19;;;;;;;9.63;3.90;;;18.00;99.90;;;;;;5109350;28;20036;-71
2023/08/23 03:23:05;;;;;;;7.30;3.70;;;18.00;99.90;;;;;;5080130;28;20598;-71
2023/08/23 03:25:51;;;;;;;11.90;3.95;;;17.90;99.90;;;;;;5095948;28;20046;-72
2023/08/23 03:28:37;;;;;;;9.40;3.30;;;17.90;99.90;;;;;;5076984;28;20101;-72
2023/08/23 03:31:23;;;;;;;8.57;3.55;;;17.80;99.90;;;;;;5094639;28;20059;-72
2023/08/23 03:34:09;;;;;;;7.07;3.85;;;17.80;99.90;;;;;;5108723;28;20031;-72
2023/08/23 03:36:55;;;;;;;8.63;4.60;;;17.80;99.90;;;;;;5079953;28;20050;-73
2023/08/23 03:39:41;;;;;;;8.30;3.92;;;17.80;99.90;;;;;;5087129;28;20039;-73
2023/08/23 03:42:27;;;;;;;10.63;3.55;;;17.70;99.90;;;;;;5073858;28;20071;-72
2023/08/23 03:45:13;;;;;;;10.57;4.45;;;17.70;99.90;;;;;;5069587;28;20039;-71
2023/08/23 03:47:58;;;;;;;6.72;4.20;;;17.70;99.90;;;;;;5060407;28;20052;-71
2023/08/23 03:50:44;;;;;;;7.72;3.65;;;17.60;99.90;;;;;;5080834;28;20039;-71
2023/08/23 03:53:30;;;;;;;8.30;3.75;;;17.60;99.90;;;;;;5081405;28;20040;-71
2023/08/23 03:56:16;;;;;;;5.70;3.50;;;17.50;99.90;;;;;;5067390;28;20716;-71
2023/08/23 03:59:02;;;;;;;11.32;3.88;;;17.50;99.90;;;;;;5082031;28;20093;-71
2023/08/23 04:01:48;;;;;;;5.85;3.38;;;17.40;99.90;;;;;;5071853;28;20070;-71
2023/08/23 04:04:34;;;;;;;7.00;3.70;;;17.40;99.90;;;;;;5070304;28;20044;-71
2023/08/23 04:07:20;;;;;;;10.05;4.20;;;17.40;99.90;;;;;;5080186;28;20081;-71
2023/08/23 04:10:07;;;;;;;7.72;4.03;;;17.40;99.90;;;;;;5080857;28;20051;-71
2023/08/23 04:12:53;;;;;;;6.43;3.55;;;17.40;99.90;;;;;;5080927;28;20050;-72
2023/08/23 04:15:43;;;;;;;8.52;4.22;;;17.30;99.90;;;;;;5072260;28;20105;-72
2023/08/23 04:18:29;;;;;;;6.35;4.05;;;17.30;99.90;;;;;;5076067;28;20570;-72
2023/08/23 04:21:15;;;;;;;12.18;4.47;;;17.30;99.90;;;;;;5075179;28;20162;-72
2023/08/23 04:24:01;;;;;;;8.68;4.20;;;17.30;99.90;;;;;;5081916;28;20061;-72
2023/08/23 04:26:47;;;;;;;6.80;3.75;;;17.20;99.90;;;;;;5095143;28;20055;-72
2023/08/23 04:29:34;;;;;;;7.72;4.50;;;17.30;99.90;;;;;;5061436;28;20040;-71
2023/08/23 04:32:20;;;;;;;11.15;5.07;;;17.20;99.90;;;;;;5076220;28;20052;-71
2023/08/23 04:35:06;;;;;;;13.18;5.63;;;17.20;99.90;;;;;;5061659;28;20039;-72
2023/08/23 04:37:52;;;;;;;7.05;4.57;;;17.30;99.90;;;;;;5088398;28;20039;-71
2023/08/23 04:40:38;;;;;;;6.85;4.72;;;17.20;99.90;;;;;;5099260;28;20050;-71
2023/08/23 04:43:24;;;;;;;9.27;4.88;;;17.30;99.90;;;;;;5086380;28;20130;-72
2023/08/23 04:46:10;;;;;;;7.15;4.18;;;17.20;99.90;;;;;;5091729;28;20138;-71
2023/08/23 04:48:56;;;;;;;7.70;4.35;;;17.20;99.90;;;;;;5092831;28;20113;-71
2023/08/23 04:51:42;;;;;;;10.02;4.63;;;17.20;99.90;;;;;;5070029;28;20355;-72
2023/08/23 04:54:27;;;;;;;10.30;5.20;;;17.20;99.90;;;;;;5097444;28;20047;-71
2023/08/23 04:57:13;;;;;;;8.02;4.47;;;17.20;99.90;;;;;;5095243;28;20036;-71
2023/08/23 04:59:59;;;;;;;13.57;5.30;;;17.20;99.90;;;;;;5112529;28;20036;-71
2023/08/23 05:02:45;;;;;;;13.93;5.72;;;17.20;99.90;;;;;;5097670;28;20110;-72
2023/08/23 05:05:32;;;;;;;9.90;5.13;;;17.30;99.90;;;;;;5083962;28;20798;-72
2023/08/23 05:08:17;;;;;;;11.73;5.50;;;17.30;99.90;;;;;;5113258;28;20143;-72
2023/08/23 05:11:03;;;;;;;10.40;5.00;;;17.30;99.90;;;;;;5112283;28;20071;-71
2023/08/23 05:13:49;;;;;;;10.27;5.80;;;17.30;99.90;;;;;;5083548;28;20031;-71
2023/08/23 05:16:35;;;;;;;12.00;6.60;;;17.30;99.90;;;;;;5093448;28;20071;-71
2023/08/23 05:19:21;;;;;;;8.50;5.97;;;17.30;99.90;;;;;;5083460;28;20031;-72
2023/08/23 05:22:07;;;;;;;12.48;5.82;;;17.30;99.90;;;;;;5085209;28;20134;-72
2023/08/23 05:24:53;;;;;;;9.95;5.97;;;17.40;99.90;;;;;;5075116;28;20032;-71
2023/08/23 05:27:39;;;;;;;16.27;6.35;;;17.40;99.90;;;;;;5077838;28;20044;-71
2023/08/23 05:30:25;;;;;;;10.27;5.60;;;17.40;99.90;;;;;;5064143;28;20311;-71
2023/08/23 05:33:12;;;;;;;10.00;5.70;;;17.40;99.90;;;;;;5078303;28;20056;-71
2023/08/23 05:35:58;;;;;;;12.93;6.10;;;17.40;99.90;;;;;;5089942;28;20073;-71
2023/08/23 05:38:45;;;;;;;13.32;7.45;;;17.50;99.90;;;;;;5080433;28;20043;-72
2023/08/23 05:41:31;;;;;;;12.10;6.07;;;17.50;99.90;;;;;;5073825;28;20035;-71
2023/08/23 05:44:17;;;;;;;15.43;7.22;;;17.60;99.90;;;;;;5112353;28;20054;-71
2023/08/23 05:47:03;;;;;;;16.58;6.38;;;17.60;99.90;;;;;;5111607;28;20044;-71
2023/08/23 05:49:49;;;;;;;12.75;7.13;;;17.70;99.90;;;;;;5099979;28;20135;-70
2023/08/23 05:52:35;;;;;;;12.13;5.88;;;17.70;99.90;;;;;;5082190;28;20054;-72
2023/08/23 05:55:21;;;;;;;13.90;6.43;;;17.70;99.90;;;;;;5077413;28;20043;-72
2023/08/23 05:58:07;;;;;;;9.52;5.63;;;17.70;99.90;;;;;;5096731;28;20375;-71
2023/08/23 06:00:55;;;;;;;11.75;6.47;;;17.80;99.90;;;;;;5082733;28;20039;-72
2023/08/23 06:03:41;;;;;;;8.85;6.30;;;17.80;99.90;;;;;;5084386;28;20054;-71
2023/08/23 06:06:27;;;;;;;11.18;6.45;;;17.90;99.90;;;;;;5078330;28;20035;-71
2023/08/23 06:09:13;;;;;;;13.18;7.18;;;17.90;99.90;;;;;;5083168;28;20039;-71
2023/08/23 06:12:00;;;;;;;13.73;7.38;;;18.00;99.90;;;;;;5097806;28;20103;-71
2023/08/23 06:14:47;;;;;;;13.85;6.55;;;18.00;99.90;;;;;;5077307;28;20104;-72
2023/08/23 06:17:33;;;;;;;11.02;6.88;;;18.00;99.90;;;;;;5092477;28;20050;-71
2023/08/23 06:20:19;;;;;;;13.43;7.15;;;18.10;99.90;;;;;;5069361;28;20043;-71
2023/08/23 06:23:05;;;;;;;14.68;7.13;;;18.10;99.90;;;;;;5056885;28;20052;-73
2023/08/23 06:26:02;;;;;;;17.88;9.07;;;18.20;99.90;;;;;;5047204;28;20040;-71
2023/08/23 06:28:48;;;;;;;13.30;10.63;;;18.20;99.90;;;;;;5063069;28;20036;-71
2023/08/23 06:31:34;;;;;;;14.52;9.68;;;18.20;99.90;;;;;;5078251;28;20051;-72
2023/08/23 06:34:20;;;;;;;16.90;10.75;;;18.30;99.90;;;;;;5103101;28;20115;-71
2023/08/23 06:37:06;;;;;;;14.25;9.80;;;18.30;99.90;;;;;;5075635;28;20044;-71
2023/08/23 06:39:52;;;;;;;11.38;8.60;;;18.30;99.90;;;;;;5061145;28;20423;-71
2023/08/23 06:42:38;;;;;;;14.43;9.73;;;18.40;99.90;;;;;;5075742;28;20044;-71
2023/08/23 06:45:24;;;;;;;17.48;10.48;;;18.50;99.90;;;;;;5049349;28;20083;-71
2023/08/23 06:48:12;;;;;;;18.90;11.88;;;18.50;99.90;;;;;;5069240;28;20048;-72
2023/08/23 06:51:01;;;;;;;17.25;11.05;;;18.60;99.90;;;;;;5080237;28;20047;-72
2023/08/23 06:53:49;;;;;;;17.83;10.98;;;18.60;99.90;;;;;;5047380;28;20082;-73
2023/08/23 06:56:36;;;;;;;18.27;11.13;;;18.60;99.90;;;;;;5064119;28;20123;-71
2023/08/23 06:59:22;;;;;;;15.27;10.27;;;18.70;99.90;;;;;;5064815;28;20036;-71
2023/08/23 07:02:10;;;;;;;13.75;8.38;;;18.70;99.90;;;;;;5064476;28;20036;-71
2023/08/23 07:04:56;;;;;;;14.60;10.25;;;18.80;99.90;;;;;;5073537;28;20044;-71
2023/08/23 07:07:42;;;;;;;14.70;9.15;;;18.90;99.90;;;;;;5055961;28;20123;-72
2023/08/23 07:10:28;;;;;;;17.65;9.80;;;18.90;99.90;;;;;;5078646;28;20032;-72
2023/08/23 07:13:14;;;;;;;23.42;9.82;;;18.90;99.90;;;;;;5089912;28;20032;-72
2023/08/23 07:16:00;;;;;;;21.15;10.95;;;19.10;99.90;;;;;;5061707;28;20055;-71
2023/08/23 07:18:46;;;;;;;20.73;10.40;;;19.10;99.90;;;;;;5072287;28;20067;-71
2023/08/23 07:21:32;;;;;;;15.20;10.02;;;19.20;99.90;;;;;;5056337;28;20044;-71
2023/08/23 07:24:18;;;;;;;14.05;8.90;;;19.30;99.90;;;;;;5070742;28;20047;-71
2023/08/23 07:27:04;;;;;;;17.10;10.20;;;19.30;99.90;;;;;;5075631;28;20044;-72
2023/08/23 07:29:50;;;;;;;17.42;10.10;;;19.40;99.90;;;;;;5084084;28;20040;-71
2023/08/23 07:32:36;;;;;;;14.23;8.15;;;19.40;99.90;;;;;;5089195;28;20143;-72
2023/08/23 07:35:22;;;;;;;12.93;8.30;;;19.50;99.90;;;;;;5074336;28;20070;-72
2023/08/23 07:38:08;;;;;;;16.30;8.82;;;19.60;99.90;;;;;;5085780;28;20372;-71
2023/08/23 07:40:58;;;;;;;17.40;10.80;;;19.70;99.90;;;;;;5061945;28;20051;-71
2023/08/23 07:43:44;;;;;;;15.35;8.05;;;19.70;99.90;;;;;;5063453;28;20032;-71
2023/08/23 07:46:30;;;;;;;15.30;9.25;;;19.70;99.90;;;;;;5071168;28;20115;-71
2023/08/23 07:49:16;;;;;;;19.00;9.90;;;19.80;99.90;;;;;;5071415;28;20036;-72
2023/08/23 07:52:02;;;;;;;16.60;8.73;;;19.80;99.90;;;;;;5071974;28;20087;-72
2023/08/23 07:54:48;;;;;;;20.38;10.10;;;19.90;99.90;;;;;;5089819;28;20036;-72
2023/08/23 07:57:34;;;;;;;16.77;9.77;;;20.00;99.90;;;;;;5088340;28;20036;-71
2023/08/23 08:00:21;;;;;;;14.93;10.23;;;20.00;99.90;;;;;;5072630;28;20535;-71
2023/08/23 08:03:07;;;;;;;12.30;7.93;;;19.90;99.90;;;;;;5088501;28;20036;-71
2023/08/23 08:05:53;;;;;;;14.82;8.60;;;20.00;99.90;;;;;;5060810;28;20040;-72
2023/08/23 08:08:42;;;;;;;17.88;9.07;;;20.10;99.90;;;;;;5083648;28;20055;-71
2023/08/23 08:11:28;;;;;;;12.50;7.90;;;20.10;99.90;;;;;;5058349;28;20129;-71
2023/08/23 08:14:14;;;;;;;17.45;8.57;;;20.10;99.90;;;;;;5071304;28;20047;-72
2023/08/23 08:17:00;;;;;;;19.17;10.18;;;20.20;99.90;;;;;;5092830;28;20051;-72
2023/08/23 08:19:46;;;;;;;12.85;8.23;;;20.30;99.90;;;;;;5085605;28;20460;-72
2023/08/23 08:22:32;;;;;;;18.30;9.20;;;20.30;99.90;;;;;;5069778;28;20082;-71
2023/08/23 08:25:18;;;;;;;17.38;8.88;;;20.30;99.90;;;;;;5078026;28;20043;-71
2023/08/23 08:28:04;;;;;;;14.60;7.93;;;20.30;99.90;;;;;;5059096;28;20059;-72
2023/08/23 08:30:50;;;;;;;18.17;8.23;;;20.30;99.90;;;;;;5070518;28;20403;-72
2023/08/23 08:33:39;;;;;;;15.32;8.57;;;20.40;99.90;;;;;;5064489;28;20618;-72
2023/08/23 08:36:25;;;;;;;17.02;9.15;;;20.40;99.90;;;;;;5032812;28;20745;-72
2023/08/23 08:39:11;;;;;;;14.70;8.23;;;20.40;99.90;;;;;;5074451;28;20074;-73
2023/08/23 08:41:58;;;;;;;14.68;7.43;;;20.40;99.90;;;;;;5073572;28;20086;-73
2023/08/23 08:44:44;;;;;;;14.13;6.53;;;20.50;99.90;;;;;;5071345;28;20047;-74
2023/08/23 08:47:30;;;;;;;13.95;7.10;;;20.70;99.90;;;;;;5077415;28;20448;-73
2023/08/23 08:50:17;;;;;;;11.57;6.60;;;20.90;99.90;;;;;;5059387;28;20468;-73
2023/08/23 08:53:05;;;;;;;12.63;6.40;;;20.90;99.90;;;;;;5049073;28;20032;-73
2023/08/23 08:55:51;;;;;;;13.52;6.22;;;20.90;99.90;;;;;;5063102;28;20058;-73
2023/08/23 08:58:37;;;;;;;12.45;6.15;;;21.00;99.90;;;;;;5077830;28;20036;-74
2023/08/23 09:01:23;;;;;;;14.68;7.65;;;21.00;99.90;;;;;;5033552;28;20052;-74
2023/08/23 09:04:13;;;;;;;11.20;5.88;;;21.00;99.90;;;;;;5057823;28;20041;-73
2023/08/23 09:06:59;;;;;;;13.38;5.90;;;21.10;99.90;;;;;;5057634;28;20176;-73
2023/08/23 09:09:45;;;;;;;9.52;5.57;;;21.20;99.90;;;;;;5063222;28;20381;-73
2023/08/23 09:12:30;;;;;;;11.05;6.40;;;21.30;99.90;;;;;;5077334;28;20036;-73
2023/08/23 09:15:19;;;;;;;15.38;6.43;;;21.30;99.90;;;;;;5044061;28;20032;-74
2023/08/23 09:18:05;;;;;;;16.15;6.22;;;21.40;99.90;;;;;;5069206;28;20043;-74
2023/08/23 09:20:51;;;;;;;10.90;5.50;;;21.40;99.90;;;;;;5063678;28;20044;-74
2023/08/23 09:23:37;;;;;;;11.27;6.25;;;21.40;99.90;;;;;;5082924;28;20475;-74
2023/08/23 09:26:24;;;;;;;10.48;5.65;;;21.60;99.90;;;;;;5084010;28;20523;-75
2023/08/23 09:29:10;;;;;;;11.65;5.57;;;21.60;99.90;;;;;;5078400;28;20539;-74
2023/08/23 09:32:00;;;;;;;9.57;6.00;;;21.60;99.90;;;;;;5062603;28;20093;-74
2023/08/23 09:34:46;;;;;;;7.88;4.70;;;21.70;99.90;;;;;;5084034;28;20486;-74
2023/08/23 09:37:32;;;;;;;9.02;5.10;;;21.70;99.90;;;;;;5063860;28;20051;-74
2023/08/23 09:40:22;;;;;;;10.77;5.15;;;21.80;99.90;;;;;;5077988;28;20563;-74
2023/08/23 09:43:08;;;;;;;13.43;5.78;;;21.80;99.90;;;;;;5083504;28;20044;-74
2023/08/23 09:45:54;;;;;;;11.82;6.00;;;21.80;99.90;;;;;;5082817;28;20042;-74
2023/08/23 09:48:40;;;;;;;14.70;6.18;;;21.80;99.90;;;;;;5058715;28;20130;-74
2023/08/23 09:51:26;;;;;;;9.65;4.97;;;21.90;99.90;;;;;;5083032;28;20047;-74
2023/08/23 09:54:26;;;;;;;11.00;5.03;;;22.00;99.90;;;;;;5074727;28;20472;-74
2023/08/23 09:57:12;;;;;;;10.52;5.50;;;22.20;99.90;;;;;;5068872;28;20454;-74
2023/08/23 09:59:59;;;;;;;9.85;5.35;;;22.20;99.90;;;;;;5068019;28;20028;-74
2023/08/23 10:02:46;;;;;;;9.02;5.30;;;22.10;99.90;;;;;;5072833;28;20434;-74
2023/08/23 10:05:32;;;;;;;11.80;6.43;;;22.20;99.90;;;;;;5085271;28;20036;-74
2023/08/23 10:08:18;;;;;;;9.38;4.70;;;22.10;99.90;;;;;;5082929;28;20050;-75
2023/08/23 10:11:04;;;;;;;10.73;5.30;;;22.30;99.90;;;;;;5075605;28;20413;-74
2023/08/23 10:13:52;;;;;;;8.75;4.97;;;22.30;99.90;;;;;;5081557;28;20036;-75
2023/08/23 10:16:39;;;;;;;6.63;4.20;;;22.50;99.90;;;;;;5063075;27;20043;-74
2023/08/23 10:19:25;;;;;;;12.48;5.07;;;22.60;99.90;;;;;;5091077;28;20035;-75
2023/08/23 10:22:12;;;;;;;8.38;4.55;;;22.70;99.90;;;;;;5077765;28;20044;-74
2023/08/23 10:24:58;;;;;;;7.20;3.55;;;22.70;99.90;;;;;;5082766;28;20043;-75
2023/08/23 10:27:45;;;;;;;4.78;3.85;;;22.80;99.90;;;;;;5077351;28;20503;-75
2023/08/23 10:30:31;;;;;;;5.95;3.38;;;22.80;99.90;;;;;;5072324;28;20075;-75
2023/08/23 10:33:18;;;;;;;5.93;3.00;;;22.90;99.90;;;;;;5096816;28;20050;-74
2023/08/23 10:36:04;;;;;;;7.07;4.20;;;23.20;99.90;;;;;;5077339;28;20039;-75
2023/08/23 10:38:50;;;;;;;7.43;3.13;;;23.10;99.90;;;;;;5066881;28;20273;-76
2023/08/23 10:41:36;;;;;;;7.25;3.53;;;23.30;99.90;;;;;;5080846;28;20047;-75
2023/08/23 10:44:22;;;;;;;11.18;4.18;;;23.30;99.90;;;;;;5068963;28;20099;-75
2023/08/23 10:47:08;;;;;;;8.02;3.60;;;23.40;99.90;;;;;;5064290;28;20126;-74
2023/08/23 10:49:54;;;;;;;10.70;4.05;;;23.20;99.90;;;;;;5056518;28;20039;-75
2023/08/23 10:52:40;;;;;;;10.70;4.63;;;23.10;99.90;;;;;;5095912;28;20044;-75
2023/08/23 10:55:26;;;;;;;11.02;3.47;;;23.20;99.90;;;;;;5080799;28;20569;-74
2023/08/23 10:58:13;;;;;;;8.10;3.20;;;23.30;99.90;;;;;;5078403;28;20039;-75
2023/08/23 11:00:59;;;;;;;12.77;4.97;;;23.50;99.90;;;;;;5080073;28;20203;-75
2023/08/23 11:03:45;;;;;;;7.30;3.60;;;23.00;99.30;;;;;;5081842;28;20475;-74
2023/08/23 11:06:32;;;;;;;5.45;3.00;;;22.90;99.90;;;;;;5068104;28;20414;-75
2023/08/23 11:09:18;;;;;;;12.50;3.60;;;23.10;99.90;;;;;;5083100;28;20422;-74
2023/08/23 11:12:05;;;;;;;7.57;3.17;;;23.20;99.90;;;;;;5076405;28;20063;-74
2023/08/23 11:14:51;;;;;;;7.07;3.08;;;23.30;99.70;;;;;;5081460;28;20074;-74
2023/08/23 11:17:37;;;;;;;8.23;2.90;;;23.40;99.40;;;;;;5095421;28;20047;-75
2023/08/23 11:20:24;;;;;;;7.20;3.05;;;23.50;99.90;;;;;;5081693;28;20740;-75
2023/08/23 11:23:10;;;;;;;6.53;2.40;;;23.60;99.90;;;;;;5075957;28;20053;-75
2023/08/23 11:25:56;;;;;;;6.13;2.20;;;23.60;99.80;;;;;;5082631;28;20104;-74
2023/08/23 11:28:42;;;;;;;7.78;2.88;;;23.60;99.80;;;;;;5081615;28;20386;-75
2023/08/23 11:31:29;;;;;;;7.28;3.30;;;23.60;99.60;;;;;;5068191;28;20075;-75
2023/08/23 11:34:15;;;;;;;7.10;3.38;;;23.40;97.80;;;;;;5082318;28;20039;-74
2023/08/23 11:37:06;;;;;;;8.95;3.45;;;23.20;98.00;;;;;;5067995;28;20522;-75
2023/08/23 11:39:59;;;;;;;7.50;3.17;;;23.20;98.60;;;;;;5080218;28;20483;-75
2023/08/23 11:42:45;;;;;;;7.10;2.55;;;23.10;97.90;;;;;;5081527;28;20463;-75
2023/08/23 11:45:37;;;;;;;7.32;2.80;;;23.00;98.20;;;;;;5093452;28;20039;-75
2023/08/23 11:48:24;;;;;;;6.30;2.50;;;23.10;98.30;;;;;;5072503;28;20793;-74
2023/08/23 11:51:10;;;;;;;5.03;2.53;;;23.20;98.40;;;;;;5061095;28;20082;-74
2023/08/23 11:53:56;;;;;;;5.63;2.42;;;23.20;97.60;;;;;;5077771;28;20046;-75
2023/08/23 11:56:43;;;;;;;14.48;3.03;;;23.20;97.80;;;;;;5066189;28;20035;-75
2023/08/23 11:59:29;;;;;;;8.48;3.40;;;23.40;98.40;;;;;;5067612;28;20116;-74
2023/08/23 12:02:15;;;;;;;11.48;2.90;;;23.80;97.40;;;;;;5062430;28;20051;-74
2023/08/23 12:05:02;;;;;;;5.30;2.78;;;23.90;97.20;;;;;;5100770;28;20495;-75
2023/08/23 12:07:48;;;;;;;10.35;3.28;;;24.10;96.70;;;;;;5062281;28;20157;-74
2023/08/23 12:10:34;;;;;;;6.70;3.03;;;24.10;97.10;;;;;;5080754;28;20044;-74
2023/08/23 12:13:20;;;;;;;7.40;2.78;;;24.50;96.90;;;;;;5061083;28;20455;-73
2023/08/23 12:16:07;;;;;;;5.25;2.50;;;24.50;96.20;;;;;;5062174;28;20130;-74
2023/08/23 12:18:53;;;;;;;4.90;2.03;;;24.50;96.10;;;;;;5082730;28;20039;-74
2023/08/23 12:21:39;;;;;;;8.82;2.30;;;24.50;97.10;;;;;;5072356;28;20479;-75
2023/08/23 12:24:25;;;;;;;6.10;2.65;;;24.40;95.60;;;;;;5059287;28;20044;-74
2023/08/23 12:27:11;;;;;;;7.25;2.60;;;24.60;96.60;;;;;;5068495;28;20043;-74
2023/08/23 12:29:57;;;;;;;4.20;1.77;;;24.80;95.90;;;;;;5045575;28;20044;-75
2023/08/23 12:32:43;;;;;;;9.52;2.40;;;24.90;96.20;;;;;;5053232;28;20468;-74
2023/08/23 12:35:29;;;;;;;5.97;2.28;;;25.00;94.30;;;;;;5058005;28;20113;-74
2023/08/23 12:38:15;;;;;;;4.07;1.70;;;24.90;93.70;;;;;;5056645;28;20028;-74
2023/08/23 12:41:01;;;;;;;5.80;2.30;;;24.80;94.00;;;;;;5069156;28;20044;-74
2023/08/23 12:43:47;;;;;;;4.32;2.05;;;24.80;93.60;;;;;;5060409;28;20130;-74
2023/08/23 12:46:33;;;;;;;5.65;2.88;;;24.40;93.80;;;;;;5041191;28;20699;-74
2023/08/23 12:49:19;;;;;;;8.27;2.67;;;24.30;95.30;;;;;;5060179;28;20048;-74
2023/08/23 12:52:06;;;;;;;6.03;1.90;;;24.50;95.90;;;;;;5073982;28;20083;-75
2023/08/23 12:54:52;;;;;;;8.88;2.60;;;24.70;95.80;;;;;;5073936;28;20131;-74
2023/08/23 12:57:38;;;;;;;7.05;2.50;;;24.70;95.50;;;;;;5043517;28;20182;-75
2023/08/23 13:00:24;;;;;;;7.80;2.10;;;24.70;94.90;;;;;;5058150;28;20070;-75
2023/08/23 13:03:10;;;;;;;4.95;1.90;;;24.70;94.70;;;;;;5077766;28;20444;-75
2023/08/23 13:05:55;;;;;;;6.60;2.10;;;24.90;94.40;;;;;;5062984;28;20043;-74
2023/08/23 13:08:41;;;;;;;6.30;2.22;;;25.00;94.00;;;;;;5066841;28;20123;-74
2023/08/23 13:11:27;;;;;;;6.05;1.90;;;25.30;93.70;;;;;;5057206;28;20131;-74
2023/08/23 13:14:13;;;;;;;9.43;1.92;;;25.40;92.60;;;;;;5057414;28;20047;-74
2023/08/23 13:16:59;;;;;;;7.28;2.40;;;25.60;92.40;;;;;;5033907;28;20039;-76
2023/08/23 13:19:45;;;;;;;6.78;2.05;;;25.70;93.20;;;;;;5039809;28;20079;-75
2023/08/23 13:22:31;;;;;;;5.40;2.15;;;25.60;92.60;;;;;;5074171;28;20101;-74
2023/08/23 13:25:17;;;;;;;4.32;1.65;;;25.50;92.80;;;;;;5068138;28;20044;-74
2023/08/23 13:28:05;;;;;;;4.22;1.50;;;25.40;91.60;;;;;;5075359;28;20806;-75
2023/08/23 13:30:51;;;;;;;5.05;1.40;;;25.20;90.80;;;;;;5048282;28;20052;-75
2023/08/23 13:33:37;;;;;;;6.53;1.50;;;25.00;91.00;;;;;;5077510;28;20118;-74
2023/08/23 13:36:24;;;;;;;5.25;1.60;;;24.90;91.10;;;;;;5050275;28;20098;-74
2023/08/23 13:39:10;;;;;;;4.05;1.48;;;24.70;91.30;;;;;;5076152;28;20482;-75
2023/08/23 13:41:56;;;;;;;4.07;1.77;;;24.90;91.70;;;;;;5062982;28;20043;-75
2023/08/23 13:44:42;;;;;;;3.92;1.42;;;25.30;91.70;;;;;;5068745;28;20040;-74
2023/08/23 13:47:28;;;;;;;8.15;1.80;;;25.60;91.40;;;;;;5056229;28;20094;-74
2023/08/23 13:50:15;;;;;;;6.65;1.40;;;25.70;91.80;;;;;;5074654;28;20465;-76
2023/08/23 13:53:01;;;;;;;5.07;1.60;;;25.70;91.10;;;;;;5065748;28;20039;-76
2023/08/23 13:55:47;;;;;;;8.68;1.50;;;25.30;91.10;;;;;;5072149;28;20128;-74
2023/08/23 13:58:33;;;;;;;7.85;2.10;;;25.30;91.30;;;;;;5042482;28;20076;-74
2023/08/23 14:01:19;;;;;;;4.68;1.40;;;25.50;91.70;;;;;;5067524;28;20123;-75
2023/08/23 14:04:05;;;;;;;3.95;1.30;;;25.70;90.70;;;;;;5091443;28;20150;-75
2023/08/23 14:06:51;;;;;;;3.15;1.30;;;25.70;91.10;;;;;;5060376;28;20036;-74
2023/08/23 14:09:37;;;;;;;4.60;1.60;;;25.60;90.90;;;;;;5086078;28;20150;-73
2023/08/23 14:12:23;;;;;;;4.85;1.70;;;25.50;91.10;;;;;;5063236;28;20048;-73
2023/08/23 14:15:10;;;;;;;5.90;1.60;;;25.10;90.60;;;;;;5075629;28;20083;-73
2023/08/23 14:17:56;;;;;;;4.93;1.50;;;25.40;91.10;;;;;;5056614;28;20043;-73
2023/08/23 14:20:42;;;;;;;3.45;1.65;;;26.00;90.60;;;;;;5067538;28;20155;-73
2023/08/23 14:23:28;;;;;;;4.43;1.52;;;26.40;90.00;;;;;;5089614;28;20063;-73